Tyrone, Pennsylvania
Current Conditions -  °F | °C
As of 11:53 AM on Friday 24 Oct 2014 (Local Time) from KUNV Reporting Station
Clear Clear  
Wind Chill: 14°   Ceiling: Unl
Heat Index: 14°   Visibility: 10mi
Dew Point:   Wind: 12mph
Humidity: 44%   Direction: 300°WNW
Pressure: 29.99"   Gusts: 17mph
Location:  40.68°N, 78.24°W
Report Text: KUNV 241553Z 30010G15KT 10SM SKC 14/02 A2999
Loading
Personal Weather Stations






























Interactive Weather Map
Tropical Storm Tracking
New forecast layout! Learn more

10-Day Weather Forecast

Advertisements
Track Severe Weather on mobile